sensor_id;sensor_type;location;lat;lon;timestamp;P1;durP1;ratioP1;P2;durP2;ratioP2
46653;SDS011;38960;51.074;17.004;2022-09-01T00:02:03;6.95;;;2.50;;
46653;SDS011;38960;51.074;17.004;2022-09-01T00:04:32;6.32;;;2.70;;
46653;SDS011;38960;51.074;17.004;2022-09-01T00:07:03;4.82;;;2.30;;
46653;SDS011;38960;51.074;17.004;2022-09-01T00:09:29;7.15;;;2.45;;
46653;SDS011;38960;51.074;17.004;2022-09-01T00:11:55;4.53;;;2.20;;
46653;SDS011;38960;51.074;17.004;2022-09-01T00:14:22;3.65;;;2.25;;
46653;SDS011;38960;51.074;17.004;2022-09-01T00:16:49;6.00;;;2.72;;
46653;SDS011;38960;51.074;17.004;2022-09-01T00:19:15;4.53;;;2.33;;
46653;SDS011;38960;51.074;17.004;2022-09-01T00:21:41;3.22;;;2.15;;
46653;SDS011;38960;51.074;17.004;2022-09-01T00:24:08;5.15;;;2.25;;
46653;SDS011;38960;51.074;17.004;2022-09-01T00:26:35;4.20;;;2.60;;
46653;SDS011;38960;51.074;17.004;2022-09-01T00:29:01;4.88;;;2.10;;
46653;SDS011;38960;51.074;17.004;2022-09-01T00:31:27;4.03;;;2.03;;
46653;SDS011;38960;51.074;17.004;2022-09-01T00:33:52;5.18;;;2.08;;
46653;SDS011;38960;51.074;17.004;2022-09-01T00:36:18;3.58;;;1.95;;
46653;SDS011;38960;51.074;17.004;2022-09-01T00:38:45;5.90;;;2.00;;
46653;SDS011;38960;51.074;17.004;2022-09-01T00:41:11;6.78;;;2.20;;
46653;SDS011;38960;51.074;17.004;2022-09-01T00:43:41;3.22;;;2.08;;
46653;SDS011;38960;51.074;17.004;2022-09-01T00:48:39;5.53;;;2.00;;
46653;SDS011;38960;51.074;17.004;2022-09-01T00:51:05;4.50;;;1.95;;
46653;SDS011;38960;51.074;17.004;2022-09-01T00:53:32;3.72;;;1.80;;
46653;SDS011;38960;51.074;17.004;2022-09-01T00:55:58;4.10;;;2.33;;
46653;SDS011;38960;51.074;17.004;2022-09-01T00:58:24;3.58;;;2.42;;
46653;SDS011;38960;51.074;17.004;2022-09-01T01:00:50;7.43;;;1.90;;
46653;SDS011;38960;51.074;17.004;2022-09-01T01:03:17;3.25;;;2.15;;
46653;SDS011;38960;51.074;17.004;2022-09-01T01:05:47;6.25;;;2.38;;
46653;SDS011;38960;51.074;17.004;2022-09-01T01:08:19;4.32;;;1.83;;
46653;SDS011;38960;51.074;17.004;2022-09-01T01:10:51;8.23;;;2.53;;
46653;SDS011;38960;51.074;17.004;2022-09-01T01:13:17;4.93;;;1.90;;
46653;SDS011;38960;51.074;17.004;2022-09-01T01:15:45;4.78;;;1.67;;
46653;SDS011;38960;51.074;17.004;2022-09-01T01:18:12;7.22;;;2.22;;
46653;SDS011;38960;51.074;17.004;2022-09-01T01:20:38;3.60;;;1.95;;
46653;SDS011;38960;51.074;17.004;2022-09-01T01:23:24;5.10;;;2.08;;
46653;SDS011;38960;51.074;17.004;2022-09-01T01:26:10;4.60;;;2.63;;
46653;SDS011;38960;51.074;17.004;2022-09-01T01:28:37;4.63;;;2.10;;
46653;SDS011;38960;51.074;17.004;2022-09-01T01:31:05;4.72;;;2.00;;
46653;SDS011;38960;51.074;17.004;2022-09-01T01:33:39;4.03;;;2.15;;
46653;SDS011;38960;51.074;17.004;2022-09-01T01:36:14;6.93;;;2.15;;
46653;SDS011;38960;51.074;17.004;2022-09-01T01:38:43;3.30;;;1.75;;
46653;SDS011;38960;51.074;17.004;2022-09-01T01:41:11;3.58;;;2.00;;
46653;SDS011;38960;51.074;17.004;2022-09-01T01:43:38;3.72;;;1.90;;
46653;SDS011;38960;51.074;17.004;2022-09-01T01:46:05;3.05;;;1.88;;
46653;SDS011;38960;51.074;17.004;2022-09-01T01:48:36;2.92;;;1.80;;
46653;SDS011;38960;51.074;17.004;2022-09-01T01:51:04;4.95;;;1.85;;
46653;SDS011;38960;51.074;17.004;2022-09-01T01:53:30;5.95;;;2.13;;
46653;SDS011;38960;51.074;17.004;2022-09-01T01:55:56;4.78;;;1.80;;
46653;SDS011;38960;51.074;17.004;2022-09-01T01:58:27;3.40;;;1.92;;
46653;SDS011;38960;51.074;17.004;2022-09-01T02:00:54;4.40;;;1.90;;
46653;SDS011;38960;51.074;17.004;2022-09-01T02:03:22;2.83;;;1.60;;
46653;SDS011;38960;51.074;17.004;2022-09-01T02:05:52;3.13;;;2.17;;
46653;SDS011;38960;51.074;17.004;2022-09-01T02:08:19;3.35;;;1.88;;
46653;SDS011;38960;51.074;17.004;2022-09-01T02:10:46;4.40;;;1.90;;
46653;SDS011;38960;51.074;17.004;2022-09-01T02:13:14;4.40;;;1.90;;
46653;SDS011;38960;51.074;17.004;2022-09-01T02:16:02;3.85;;;1.83;;
46653;SDS011;38960;51.074;17.004;2022-09-01T02:18:33;7.63;;;2.30;;
46653;SDS011;38960;51.074;17.004;2022-09-01T02:21:01;2.97;;;1.88;;
46653;SDS011;38960;51.074;17.004;2022-09-01T02:23:32;3.22;;;2.17;;
46653;SDS011;38960;51.074;17.004;2022-09-01T02:25:58;7.20;;;1.95;;
46653;SDS011;38960;51.074;17.004;2022-09-01T02:28:28;5.60;;;2.25;;
46653;SDS011;38960;51.074;17.004;2022-09-01T02:30:56;7.75;;;2.05;;
46653;SDS011;38960;51.074;17.004;2022-09-01T02:33:24;5.28;;;2.10;;
46653;SDS011;38960;51.074;17.004;2022-09-01T02:35:51;4.88;;;2.00;;
46653;SDS011;38960;51.074;17.004;2022-09-01T02:40:50;3.70;;;1.98;;
46653;SDS011;38960;51.074;17.004;2022-09-01T02:43:18;3.50;;;1.65;;
46653;SDS011;38960;51.074;17.004;2022-09-01T02:45:49;4.03;;;1.73;;
46653;SDS011;38960;51.074;17.004;2022-09-01T02:48:20;2.47;;;1.60;;
46653;SDS011;38960;51.074;17.004;2022-09-01T02:50:50;3.43;;;1.50;;
46653;SDS011;38960;51.074;17.004;2022-09-01T02:53:16;3.50;;;1.70;;
46653;SDS011;38960;51.074;17.004;2022-09-01T02:55:44;2.67;;;1.60;;
46653;SDS011;38960;51.074;17.004;2022-09-01T02:58:10;2.45;;;1.60;;
46653;SDS011;38960;51.074;17.004;2022-09-01T03:00:50;5.10;;;1.83;;
46653;SDS011;38960;51.074;17.004;2022-09-01T03:03:18;3.30;;;1.80;;
46653;SDS011;38960;51.074;17.004;2022-09-01T03:05:44;4.18;;;1.58;;
46653;SDS011;38960;51.074;17.004;2022-09-01T03:08:10;5.90;;;1.95;;
46653;SDS011;38960;51.074;17.004;2022-09-01T03:10:40;5.70;;;1.90;;
46653;SDS011;38960;51.074;17.004;2022-09-01T03:13:09;3.42;;;1.98;;
46653;SDS011;38960;51.074;17.004;2022-09-01T03:15:36;3.75;;;1.85;;
46653;SDS011;38960;51.074;17.004;2022-09-01T03:18:03;6.35;;;2.63;;
46653;SDS011;38960;51.074;17.004;2022-09-01T03:20:30;4.68;;;2.15;;
46653;SDS011;38960;51.074;17.004;2022-09-01T03:23:02;6.97;;;1.88;;
46653;SDS011;38960;51.074;17.004;2022-09-01T03:25:30;5.90;;;2.08;;
46653;SDS011;38960;51.074;17.004;2022-09-01T03:27:56;5.95;;;2.03;;
46653;SDS011;38960;51.074;17.004;2022-09-01T03:30:27;4.90;;;2.30;;
46653;SDS011;38960;51.074;17.004;2022-09-01T03:32:56;4.15;;;1.73;;
46653;SDS011;38960;51.074;17.004;2022-09-01T03:35:23;4.50;;;1.90;;
46653;SDS011;38960;51.074;17.004;2022-09-01T03:37:50;3.35;;;2.05;;
46653;SDS011;38960;51.074;17.004;2022-09-01T03:40:17;4.65;;;1.80;;
46653;SDS011;38960;51.074;17.004;2022-09-01T03:42:43;3.92;;;1.98;;
46653;SDS011;38960;51.074;17.004;2022-09-01T03:45:10;6.85;;;2.03;;
46653;SDS011;38960;51.074;17.004;2022-09-01T03:47:40;5.78;;;2.15;;
46653;SDS011;38960;51.074;17.004;2022-09-01T03:50:07;4.32;;;1.92;;
46653;SDS011;38960;51.074;17.004;2022-09-01T03:52:54;2.75;;;1.88;;
46653;SDS011;38960;51.074;17.004;2022-09-01T03:55:25;3.25;;;1.83;;
46653;SDS011;38960;51.074;17.004;2022-09-01T03:57:57;4.65;;;1.67;;
46653;SDS011;38960;51.074;17.004;2022-09-01T04:00:32;7.93;;;2.05;;
46653;SDS011;38960;51.074;17.004;2022-09-01T04:03:01;5.20;;;2.10;;
46653;SDS011;38960;51.074;17.004;2022-09-01T04:05:29;6.47;;;2.22;;
46653;SDS011;38960;51.074;17.004;2022-09-01T04:07:59;4.82;;;2.08;;
46653;SDS011;38960;51.074;17.004;2022-09-01T04:10:29;4.57;;;1.95;;
46653;SDS011;38960;51.074;17.004;2022-09-01T04:12:57;5.05;;;2.45;;
46653;SDS011;38960;51.074;17.004;2022-09-01T04:15:24;8.07;;;2.78;;
46653;SDS011;38960;51.074;17.004;2022-09-01T04:17:51;4.82;;;2.40;;
46653;SDS011;38960;51.074;17.004;2022-09-01T04:20:33;6.40;;;2.47;;
46653;SDS011;38960;51.074;17.004;2022-09-01T04:23:23;8.65;;;2.22;;
46653;SDS011;38960;51.074;17.004;2022-09-01T04:25:53;6.35;;;2.05;;
46653;SDS011;38960;51.074;17.004;2022-09-01T04:28:44;6.03;;;2.10;;
46653;SDS011;38960;51.074;17.004;2022-09-01T04:31:13;8.15;;;2.25;;
46653;SDS011;38960;51.074;17.004;2022-09-01T04:33:43;14.30;;;3.00;;
46653;SDS011;38960;51.074;17.004;2022-09-01T04:36:13;7.90;;;2.47;;
46653;SDS011;38960;51.074;17.004;2022-09-01T04:38:52;20.55;;;2.50;;
46653;SDS011;38960;51.074;17.004;2022-09-01T04:41:25;6.32;;;2.30;;
46653;SDS011;38960;51.074;17.004;2022-09-01T04:43:57;8.60;;;3.00;;
46653;SDS011;38960;51.074;17.004;2022-09-01T04:46:25;10.65;;;2.70;;
46653;SDS011;38960;51.074;17.004;2022-09-01T04:48:56;6.43;;;2.40;;
46653;SDS011;38960;51.074;17.004;2022-09-01T04:51:23;7.30;;;2.20;;
46653;SDS011;38960;51.074;17.004;2022-09-01T04:53:54;10.50;;;2.53;;
46653;SDS011;38960;51.074;17.004;2022-09-01T04:56:22;7.85;;;2.50;;
46653;SDS011;38960;51.074;17.004;2022-09-01T04:59:10;26.65;;;3.60;;
46653;SDS011;38960;51.074;17.004;2022-09-01T05:01:38;9.60;;;2.50;;
46653;SDS011;38960;51.074;17.004;2022-09-01T05:04:13;8.57;;;2.53;;
46653;SDS011;38960;51.074;17.004;2022-09-01T05:06:45;12.23;;;2.40;;
46653;SDS011;38960;51.074;17.004;2022-09-01T05:09:14;12.20;;;2.47;;
46653;SDS011;38960;51.074;17.004;2022-09-01T05:12:07;7.03;;;2.63;;
46653;SDS011;38960;51.074;17.004;2022-09-01T05:14:40;6.82;;;2.45;;
46653;SDS011;38960;51.074;17.004;2022-09-01T05:17:08;14.07;;;2.60;;
46653;SDS011;38960;51.074;17.004;2022-09-01T05:19:36;7.75;;;2.70;;
46653;SDS011;38960;51.074;17.004;2022-09-01T05:22:03;9.32;;;2.60;;
46653;SDS011;38960;51.074;17.004;2022-09-01T05:24:30;9.15;;;2.90;;
46653;SDS011;38960;51.074;17.004;2022-09-01T05:27:00;10.50;;;2.40;;
46653;SDS011;38960;51.074;17.004;2022-09-01T05:29:27;3.28;;;2.25;;
46653;SDS011;38960;51.074;17.004;2022-09-01T05:31:54;9.05;;;2.95;;
46653;SDS011;38960;51.074;17.004;2022-09-01T05:34:21;13.20;;;3.00;;
46653;SDS011;38960;51.074;17.004;2022-09-01T05:36:52;6.95;;;2.58;;
46653;SDS011;38960;51.074;17.004;2022-09-01T05:39:20;7.93;;;2.08;;
46653;SDS011;38960;51.074;17.004;2022-09-01T05:41:46;12.90;;;2.80;;
46653;SDS011;38960;51.074;17.004;2022-09-01T05:44:15;10.43;;;2.97;;
46653;SDS011;38960;51.074;17.004;2022-09-01T05:46:42;5.25;;;2.20;;
46653;SDS011;38960;51.074;17.004;2022-09-01T05:49:09;6.78;;;2.58;;
46653;SDS011;38960;51.074;17.004;2022-09-01T05:51:41;4.40;;;2.13;;
46653;SDS011;38960;51.074;17.004;2022-09-01T05:54:10;5.82;;;2.10;;
46653;SDS011;38960;51.074;17.004;2022-09-01T05:56:36;9.82;;;3.22;;
46653;SDS011;38960;51.074;17.004;2022-09-01T05:59:05;3.67;;;2.45;;
46653;SDS011;38960;51.074;17.004;2022-09-01T06:01:31;5.13;;;2.10;;
46653;SDS011;38960;51.074;17.004;2022-09-01T06:04:05;5.57;;;2.10;;
46653;SDS011;38960;51.074;17.004;2022-09-01T06:09:05;8.73;;;2.70;;
46653;SDS011;38960;51.074;17.004;2022-09-01T06:11:32;6.68;;;2.35;;
46653;SDS011;38960;51.074;17.004;2022-09-01T06:13:59;7.10;;;2.35;;
46653;SDS011;38960;51.074;17.004;2022-09-01T06:16:25;3.40;;;1.80;;
46653;SDS011;38960;51.074;17.004;2022-09-01T06:18:52;7.75;;;2.42;;
46653;SDS011;38960;51.074;17.004;2022-09-01T06:21:20;7.18;;;2.10;;
46653;SDS011;38960;51.074;17.004;2022-09-01T06:23:47;5.65;;;2.22;;
46653;SDS011;38960;51.074;17.004;2022-09-01T06:26:20;7.50;;;1.98;;
46653;SDS011;38960;51.074;17.004;2022-09-01T06:28:56;5.47;;;2.20;;
46653;SDS011;38960;51.074;17.004;2022-09-01T06:31:25;6.35;;;2.47;;
46653;SDS011;38960;51.074;17.004;2022-09-01T06:33:54;6.25;;;2.25;;
46653;SDS011;38960;51.074;17.004;2022-09-01T06:36:22;5.07;;;2.28;;
46653;SDS011;38960;51.074;17.004;2022-09-01T06:38:48;10.95;;;1.90;;
46653;SDS011;38960;51.074;17.004;2022-09-01T06:41:15;8.07;;;1.92;;
46653;SDS011;38960;51.074;17.004;2022-09-01T06:43:44;13.02;;;3.63;;
46653;SDS011;38960;51.074;17.004;2022-09-01T06:46:20;5.95;;;1.70;;
46653;SDS011;38960;51.074;17.004;2022-09-01T06:48:47;6.93;;;2.05;;
46653;SDS011;38960;51.074;17.004;2022-09-01T06:51:18;8.02;;;2.30;;
46653;SDS011;38960;51.074;17.004;2022-09-01T06:53:50;5.30;;;2.00;;
46653;SDS011;38960;51.074;17.004;2022-09-01T06:56:21;3.95;;;1.70;;
46653;SDS011;38960;51.074;17.004;2022-09-01T06:58:50;5.32;;;1.85;;
46653;SDS011;38960;51.074;17.004;2022-09-01T07:01:18;7.32;;;2.40;;
46653;SDS011;38960;51.074;17.004;2022-09-01T07:03:47;4.43;;;1.67;;
46653;SDS011;38960;51.074;17.004;2022-09-01T07:06:39;4.75;;;2.08;;
46653;SDS011;38960;51.074;17.004;2022-09-01T07:09:15;7.95;;;1.85;;
46653;SDS011;38960;51.074;17.004;2022-09-01T07:11:43;4.90;;;1.73;;
46653;SDS011;38960;51.074;17.004;2022-09-01T07:14:09;4.50;;;1.80;;
46653;SDS011;38960;51.074;17.004;2022-09-01T07:16:36;7.82;;;2.10;;
46653;SDS011;38960;51.074;17.004;2022-09-01T07:19:07;7.43;;;2.10;;
46653;SDS011;38960;51.074;17.004;2022-09-01T07:21:40;4.50;;;2.33;;
46653;SDS011;38960;51.074;17.004;2022-09-01T07:24:08;4.43;;;1.77;;
46653;SDS011;38960;51.074;17.004;2022-09-01T07:26:35;4.07;;;1.73;;
46653;SDS011;38960;51.074;17.004;2022-09-01T07:29:02;9.38;;;2.47;;
46653;SDS011;38960;51.074;17.004;2022-09-01T07:31:37;3.80;;;1.90;;
46653;SDS011;38960;51.074;17.004;2022-09-01T07:34:06;6.57;;;1.60;;
46653;SDS011;38960;51.074;17.004;2022-09-01T07:36:34;4.53;;;1.70;;
46653;SDS011;38960;51.074;17.004;2022-09-01T07:39:02;5.07;;;2.00;;
46653;SDS011;38960;51.074;17.004;2022-09-01T07:41:28;3.17;;;1.70;;
46653;SDS011;38960;51.074;17.004;2022-09-01T07:44:29;4.53;;;1.90;;
46653;SDS011;38960;51.074;17.004;2022-09-01T07:47:13;4.00;;;2.10;;
46653;SDS011;38960;51.074;17.004;2022-09-01T07:49:40;2.85;;;1.67;;
46653;SDS011;38960;51.074;17.004;2022-09-01T07:52:06;4.05;;;1.75;;
46653;SDS011;38960;51.074;17.004;2022-09-01T07:54:33;4.10;;;1.55;;
46653;SDS011;38960;51.074;17.004;2022-09-01T07:57:02;2.53;;;1.65;;
46653;SDS011;38960;51.074;17.004;2022-09-01T07:59:29;5.32;;;1.95;;
46653;SDS011;38960;51.074;17.004;2022-09-01T08:02:12;6.03;;;2.17;;
46653;SDS011;38960;51.074;17.004;2022-09-01T08:04:40;3.00;;;1.40;;
46653;SDS011;38960;51.074;17.004;2022-09-01T08:07:08;4.80;;;1.80;;
46653;SDS011;38960;51.074;17.004;2022-09-01T08:09:35;3.33;;;1.45;;
46653;SDS011;38960;51.074;17.004;2022-09-01T08:12:03;3.92;;;1.63;;
46653;SDS011;38960;51.074;17.004;2022-09-01T08:14:32;7.38;;;1.52;;
46653;SDS011;38960;51.074;17.004;2022-09-01T08:16:58;4.30;;;1.42;;
46653;SDS011;38960;51.074;17.004;2022-09-01T08:19:24;2.22;;;1.35;;
46653;SDS011;38960;51.074;17.004;2022-09-01T08:22:11;3.40;;;1.20;;
46653;SDS011;38960;51.074;17.004;2022-09-01T08:24:47;3.35;;;1.30;;
46653;SDS011;38960;51.074;17.004;2022-09-01T08:27:12;2.45;;;1.20;;
46653;SDS011;38960;51.074;17.004;2022-09-01T08:29:38;2.53;;;1.40;;
46653;SDS011;38960;51.074;17.004;2022-09-01T08:32:04;1.98;;;1.10;;
46653;SDS011;38960;51.074;17.004;2022-09-01T08:34:31;3.60;;;1.40;;
46653;SDS011;38960;51.074;17.004;2022-09-01T08:36:57;2.75;;;1.40;;
46653;SDS011;38960;51.074;17.004;2022-09-01T08:39:22;1.85;;;1.17;;
46653;SDS011;38960;51.074;17.004;2022-09-01T08:41:55;4.68;;;1.50;;
46653;SDS011;38960;51.074;17.004;2022-09-01T08:47:14;3.15;;;1.85;;
46653;SDS011;38960;51.074;17.004;2022-09-01T08:49:42;2.70;;;1.02;;
46653;SDS011;38960;51.074;17.004;2022-09-01T08:53:08;3.42;;;1.20;;
46653;SDS011;38960;51.074;17.004;2022-09-01T08:55:46;2.60;;;1.05;;
46653;SDS011;38960;51.074;17.004;2022-09-01T08:58:14;2.00;;;1.40;;
46653;SDS011;38960;51.074;17.004;2022-09-01T09:01:08;3.03;;;1.10;;
46653;SDS011;38960;51.074;17.004;2022-09-01T09:09:09;5.72;;;1.75;;
46653;SDS011;38960;51.074;17.004;2022-09-01T09:17:33;1.40;;;1.02;;
46653;SDS011;38960;51.074;17.004;2022-09-01T09:20:02;4.20;;;1.30;;
46653;SDS011;38960;51.074;17.004;2022-09-01T09:22:28;2.45;;;1.00;;
46653;SDS011;38960;51.074;17.004;2022-09-01T09:27:39;2.20;;;1.33;;
46653;SDS011;38960;51.074;17.004;2022-09-01T09:35:30;5.13;;;1.20;;
46653;SDS011;38960;51.074;17.004;2022-09-01T09:43:48;1.95;;;1.13;;
46653;SDS011;38960;51.074;17.004;2022-09-01T09:49:06;2.25;;;1.25;;
46653;SDS011;38960;51.074;17.004;2022-09-01T09:51:35;3.60;;;1.05;;
46653;SDS011;38960;51.074;17.004;2022-09-01T09:56:47;3.15;;;1.00;;
46653;SDS011;38960;51.074;17.004;2022-09-01T09:59:18;2.65;;;1.17;;
46653;SDS011;38960;51.074;17.004;2022-09-01T10:01:47;3.75;;;1.10;;
46653;SDS011;38960;51.074;17.004;2022-09-01T10:04:30;2.13;;;1.30;;
46653;SDS011;38960;51.074;17.004;2022-09-01T10:06:57;2.65;;;1.23;;
46653;SDS011;38960;51.074;17.004;2022-09-01T10:11:54;3.67;;;1.00;;
46653;SDS011;38960;51.074;17.004;2022-09-01T10:14:22;3.38;;;0.93;;
46653;SDS011;38960;51.074;17.004;2022-09-01T10:16:51;2.78;;;1.17;;
46653;SDS011;38960;51.074;17.004;2022-09-01T10:19:20;2.35;;;1.02;;
46653;SDS011;38960;51.074;17.004;2022-09-01T10:21:46;1.20;;;0.90;;
46653;SDS011;38960;51.074;17.004;2022-09-01T10:26:42;1.00;;;0.90;;
46653;SDS011;38960;51.074;17.004;2022-09-01T10:29:13;2.67;;;0.90;;
46653;SDS011;38960;51.074;17.004;2022-09-01T10:31:40;5.20;;;1.40;;
46653;SDS011;38960;51.074;17.004;2022-09-01T10:34:06;1.75;;;1.08;;
46653;SDS011;38960;51.074;17.004;2022-09-01T10:36:38;6.35;;;1.23;;
46653;SDS011;38960;51.074;17.004;2022-09-01T10:39:09;4.70;;;1.50;;
46653;SDS011;38960;51.074;17.004;2022-09-01T10:41:43;5.07;;;1.38;;
46653;SDS011;38960;51.074;17.004;2022-09-01T10:46:59;2.22;;;1.00;;
46653;SDS011;38960;51.074;17.004;2022-09-01T10:51:55;4.03;;;1.70;;
46653;SDS011;38960;51.074;17.004;2022-09-01T10:57:09;3.33;;;0.90;;
46653;SDS011;38960;51.074;17.004;2022-09-01T10:59:36;1.58;;;0.90;;
46653;SDS011;38960;51.074;17.004;2022-09-01T11:02:04;3.22;;;1.50;;
46653;SDS011;38960;51.074;17.004;2022-09-01T11:07:37;4.20;;;1.15;;
46653;SDS011;38960;51.074;17.004;2022-09-01T11:15:37;2.58;;;1.30;;
46653;SDS011;38960;51.074;17.004;2022-09-01T11:18:14;2.15;;;1.10;;
46653;SDS011;38960;51.074;17.004;2022-09-01T11:20:41;2.78;;;1.23;;
46653;SDS011;38960;51.074;17.004;2022-09-01T11:28:55;3.50;;;0.88;;
46653;SDS011;38960;51.074;17.004;2022-09-01T11:36:36;4.55;;;1.50;;
46653;SDS011;38960;51.074;17.004;2022-09-01T11:39:23;7.38;;;1.63;;
46653;SDS011;38960;51.074;17.004;2022-09-01T11:42:00;4.63;;;0.85;;
46653;SDS011;38960;51.074;17.004;2022-09-01T11:47:18;2.92;;;1.30;;
46653;SDS011;38960;51.074;17.004;2022-09-01T11:49:49;3.75;;;1.00;;
46653;SDS011;38960;51.074;17.004;2022-09-01T11:52:18;7.95;;;1.80;;
46653;SDS011;38960;51.074;17.004;2022-09-01T11:54:45;2.08;;;1.00;;
46653;SDS011;38960;51.074;17.004;2022-09-01T11:59:51;3.03;;;1.83;;
46653;SDS011;38960;51.074;17.004;2022-09-01T12:02:17;3.78;;;1.50;;
46653;SDS011;38960;51.074;17.004;2022-09-01T12:04:49;1.33;;;0.70;;
46653;SDS011;38960;51.074;17.004;2022-09-01T12:10:14;1.45;;;1.00;;
46653;SDS011;38960;51.074;17.004;2022-09-01T12:13:07;2.42;;;1.27;;
46653;SDS011;38960;51.074;17.004;2022-09-01T12:15:41;1.08;;;0.70;;
46653;SDS011;38960;51.074;17.004;2022-09-01T12:18:26;1.95;;;0.90;;
46653;SDS011;38960;51.074;17.004;2022-09-01T12:20:54;1.52;;;0.80;;
46653;SDS011;38960;51.074;17.004;2022-09-01T12:25:58;2.22;;;0.70;;
46653;SDS011;38960;51.074;17.004;2022-09-01T12:28:43;2.50;;;1.00;;
46653;SDS011;38960;51.074;17.004;2022-09-01T12:31:13;2.00;;;1.08;;
46653;SDS011;38960;51.074;17.004;2022-09-01T12:33:41;2.90;;;1.17;;
46653;SDS011;38960;51.074;17.004;2022-09-01T12:36:17;1.00;;;0.70;;
46653;SDS011;38960;51.074;17.004;2022-09-01T12:38:53;3.28;;;1.08;;
46653;SDS011;38960;51.074;17.004;2022-09-01T12:41:36;2.47;;;0.90;;
46653;SDS011;38960;51.074;17.004;2022-09-01T12:47:03;3.20;;;0.52;;
46653;SDS011;38960;51.074;17.004;2022-09-01T12:54:46;1.30;;;0.80;;
46653;SDS011;38960;51.074;17.004;2022-09-01T12:57:32;1.50;;;0.65;;
46653;SDS011;38960;51.074;17.004;2022-09-01T13:02:50;1.15;;;0.88;;
46653;SDS011;38960;51.074;17.004;2022-09-01T13:05:41;2.30;;;1.00;;
46653;SDS011;38960;51.074;17.004;2022-09-01T13:08:11;7.47;;;1.07;;
46653;SDS011;38960;51.074;17.004;2022-09-01T13:10:42;2.60;;;1.10;;
46653;SDS011;38960;51.074;17.004;2022-09-01T13:13:09;1.40;;;0.63;;
46653;SDS011;38960;51.074;17.004;2022-09-01T13:15:39;1.92;;;0.73;;
46653;SDS011;38960;51.074;17.004;2022-09-01T13:18:06;2.90;;;0.75;;
46653;SDS011;38960;51.074;17.004;2022-09-01T13:20:32;2.85;;;0.75;;
46653;SDS011;38960;51.074;17.004;2022-09-01T13:22:58;2.38;;;0.85;;
46653;SDS011;38960;51.074;17.004;2022-09-01T13:25:24;1.25;;;1.02;;
46653;SDS011;38960;51.074;17.004;2022-09-01T13:27:49;1.30;;;0.90;;
46653;SDS011;38960;51.074;17.004;2022-09-01T13:30:20;1.92;;;0.93;;
46653;SDS011;38960;51.074;17.004;2022-09-01T13:32:48;1.67;;;0.90;;
46653;SDS011;38960;51.074;17.004;2022-09-01T13:35:16;1.35;;;0.90;;
46653;SDS011;38960;51.074;17.004;2022-09-01T13:37:46;2.95;;;0.70;;
46653;SDS011;38960;51.074;17.004;2022-09-01T13:40:13;4.43;;;0.90;;
46653;SDS011;38960;51.074;17.004;2022-09-01T13:42:42;3.05;;;0.80;;
46653;SDS011;38960;51.074;17.004;2022-09-01T13:45:09;2.10;;;0.77;;
46653;SDS011;38960;51.074;17.004;2022-09-01T13:47:41;3.50;;;0.75;;
46653;SDS011;38960;51.074;17.004;2022-09-01T13:50:08;2.97;;;0.70;;
46653;SDS011;38960;51.074;17.004;2022-09-01T13:52:35;1.73;;;0.82;;
46653;SDS011;38960;51.074;17.004;2022-09-01T13:55:02;1.58;;;0.60;;
46653;SDS011;38960;51.074;17.004;2022-09-01T13:57:28;3.20;;;0.70;;
46653;SDS011;38960;51.074;17.004;2022-09-01T13:59:54;1.08;;;0.70;;
46653;SDS011;38960;51.074;17.004;2022-09-01T14:02:21;1.52;;;0.77;;
46653;SDS011;38960;51.074;17.004;2022-09-01T14:04:46;4.43;;;0.98;;
46653;SDS011;38960;51.074;17.004;2022-09-01T14:07:12;3.03;;;1.13;;
46653;SDS011;38960;51.074;17.004;2022-09-01T14:09:37;2.15;;;0.85;;
46653;SDS011;38960;51.074;17.004;2022-09-01T14:12:03;1.13;;;0.63;;
46653;SDS011;38960;51.074;17.004;2022-09-01T14:14:31;2.47;;;0.95;;
46653;SDS011;38960;51.074;17.004;2022-09-01T14:16:58;0.52;;;0.50;;
46653;SDS011;38960;51.074;17.004;2022-09-01T14:19:23;2.22;;;0.70;;
46653;SDS011;38960;51.074;17.004;2022-09-01T14:21:49;6.20;;;1.08;;
46653;SDS011;38960;51.074;17.004;2022-09-01T14:24:14;4.20;;;0.70;;
46653;SDS011;38960;51.074;17.004;2022-09-01T14:26:44;1.75;;;0.70;;
46653;SDS011;38960;51.074;17.004;2022-09-01T14:29:10;3.65;;;1.00;;
46653;SDS011;38960;51.074;17.004;2022-09-01T14:31:35;4.18;;;0.90;;
46653;SDS011;38960;51.074;17.004;2022-09-01T14:34:01;3.60;;;1.00;;
46653;SDS011;38960;51.074;17.004;2022-09-01T14:36:28;5.15;;;0.75;;
46653;SDS011;38960;51.074;17.004;2022-09-01T14:38:53;4.50;;;0.68;;
46653;SDS011;38960;51.074;17.004;2022-09-01T14:41:20;1.67;;;0.80;;
46653;SDS011;38960;51.074;17.004;2022-09-01T14:43:48;2.97;;;0.70;;
46653;SDS011;38960;51.074;17.004;2022-09-01T14:46:14;1.85;;;0.60;;
46653;SDS011;38960;51.074;17.004;2022-09-01T14:48:40;1.08;;;0.70;;
46653;SDS011;38960;51.074;17.004;2022-09-01T14:51:06;1.98;;;0.60;;
46653;SDS011;38960;51.074;17.004;2022-09-01T14:53:33;2.05;;;0.90;;
46653;SDS011;38960;51.074;17.004;2022-09-01T14:55:59;3.72;;;1.17;;
46653;SDS011;38960;51.074;17.004;2022-09-01T14:58:26;1.05;;;0.60;;
46653;SDS011;38960;51.074;17.004;2022-09-01T15:00:53;2.72;;;0.77;;
46653;SDS011;38960;51.074;17.004;2022-09-01T15:03:23;4.18;;;0.80;;
46653;SDS011;38960;51.074;17.004;2022-09-01T15:05:50;1.87;;;0.73;;
46653;SDS011;38960;51.074;17.004;2022-09-01T15:08:17;0.70;;;0.40;;
46653;SDS011;38960;51.074;17.004;2022-09-01T15:10:43;2.42;;;1.30;;
46653;SDS011;38960;51.074;17.004;2022-09-01T15:13:08;3.90;;;0.88;;
46653;SDS011;38960;51.074;17.004;2022-09-01T15:15:34;3.03;;;0.93;;
46653;SDS011;38960;51.074;17.004;2022-09-01T15:18:00;1.08;;;0.70;;
46653;SDS011;38960;51.074;17.004;2022-09-01T15:20:26;1.17;;;0.70;;
46653;SDS011;38960;51.074;17.004;2022-09-01T15:23:17;4.95;;;0.95;;
46653;SDS011;38960;51.074;17.004;2022-09-01T15:25:45;2.97;;;0.90;;
46653;SDS011;38960;51.074;17.004;2022-09-01T15:28:11;1.20;;;1.00;;
46653;SDS011;38960;51.074;17.004;2022-09-01T15:30:37;5.60;;;0.82;;
46653;SDS011;38960;51.074;17.004;2022-09-01T15:33:04;3.53;;;1.20;;
46653;SDS011;38960;51.074;17.004;2022-09-01T15:35:30;2.03;;;0.90;;
46653;SDS011;38960;51.074;17.004;2022-09-01T15:37:56;1.80;;;0.80;;
46653;SDS011;38960;51.074;17.004;2022-09-01T15:40:22;2.38;;;0.88;;
46653;SDS011;38960;51.074;17.004;2022-09-01T15:42:49;6.53;;;1.17;;
46653;SDS011;38960;51.074;17.004;2022-09-01T15:45:16;4.15;;;0.80;;
46653;SDS011;38960;51.074;17.004;2022-09-01T15:47:44;3.20;;;0.80;;
46653;SDS011;38960;51.074;17.004;2022-09-01T15:50:14;1.92;;;0.75;;
46653;SDS011;38960;51.074;17.004;2022-09-01T15:55:24;0.80;;;0.80;;
46653;SDS011;38960;51.074;17.004;2022-09-01T16:00:21;3.95;;;0.90;;
46653;SDS011;38960;51.074;17.004;2022-09-01T16:02:48;3.67;;;1.17;;
46653;SDS011;38960;51.074;17.004;2022-09-01T16:05:13;3.05;;;0.90;;
46653;SDS011;38960;51.074;17.004;2022-09-01T16:07:39;3.03;;;0.90;;
46653;SDS011;38960;51.074;17.004;2022-09-01T16:10:06;2.53;;;0.88;;
46653;SDS011;38960;51.074;17.004;2022-09-01T16:12:36;1.23;;;0.87;;
46653;SDS011;38960;51.074;17.004;2022-09-01T16:15:14;1.77;;;1.10;;
46653;SDS011;38960;51.074;17.004;2022-09-01T16:17:48;1.27;;;0.63;;
46653;SDS011;38960;51.074;17.004;2022-09-01T16:20:58;1.88;;;0.77;;
46653;SDS011;38960;51.074;17.004;2022-09-01T16:23:50;4.75;;;1.02;;
46653;SDS011;38960;51.074;17.004;2022-09-01T16:26:18;3.33;;;0.70;;
46653;SDS011;38960;51.074;17.004;2022-09-01T16:28:51;2.25;;;1.10;;
46653;SDS011;38960;51.074;17.004;2022-09-01T16:31:27;3.28;;;1.20;;